Time;durP1;ratioP1;P1;durP2;ratioP2;P2;SDS_P1;SDS_P2;PMS_P1;PMS_P2;Temp;Humidity;BMP_temperature;BMP_pressure;BME280_temperature;BME280_humidity;BME280_pressure;Samples;Min_cycle;Max_cycle;Signal;HPM_P1;HPM_P2
2023/02/20 00:01:51;;;;;;;4.93;1.92;;;;;;;16.56;53.11;100886.41;5112068;28;20570;-71
2023/02/20 00:04:19;;;;;;;4.43;1.75;;;;;;;16.53;52.89;100884.81;5112086;28;20119;-71
2023/02/20 00:06:47;;;;;;;6.72;2.20;;;;;;;16.47;52.82;100885.25;5112048;28;20400;-72
2023/02/20 00:09:16;;;;;;;4.35;1.70;;;;;;;16.48;52.90;100888.81;5111952;28;20093;-72
2023/02/20 00:11:45;;;;;;;5.32;1.90;;;;;;;16.47;52.93;100893.34;5112012;28;20047;-71
2023/02/20 00:14:14;;;;;;;6.13;2.03;;;;;;;16.45;52.95;100897.13;5111919;28;20366;-71
2023/02/20 00:16:42;;;;;;;5.22;2.00;;;;;;;16.43;52.81;100896.38;5111989;28;20047;-71
2023/02/20 00:19:11;;;;;;;6.20;2.10;;;;;;;16.40;52.66;100897.44;5112032;28;20048;-71
2023/02/20 00:21:45;;;;;;;4.88;2.00;;;;;;;16.39;52.67;100895.72;5111812;28;20071;-71
2023/02/20 00:24:16;;;;;;;5.15;1.73;;;;;;;16.36;52.87;100906.75;5111864;28;20044;-71
2023/02/20 00:26:48;;;;;;;5.28;1.75;;;;;;;16.35;52.86;100893.41;5111801;28;20125;-71
2023/02/20 00:29:17;;;;;;;4.60;1.77;;;;;;;16.33;52.86;100911.50;5111672;28;20075;-71
2023/02/20 00:31:51;;;;;;;5.07;2.05;;;;;;;16.32;52.86;100921.41;5111581;28;20537;-71
2023/02/20 00:34:21;;;;;;;4.18;1.75;;;;;;;16.30;52.76;100923.34;5112741;28;20047;-71
2023/02/20 00:36:50;;;;;;;4.18;1.80;;;;;;;16.29;52.48;100922.47;5115397;28;20101;-71
2023/02/20 00:39:19;;;;;;;4.25;1.63;;;;;;;16.25;52.69;100920.13;5115542;28;20063;-71
2023/02/20 00:41:48;;;;;;;3.70;1.58;;;;;;;16.25;52.65;100941.66;5115554;27;20040;-71
2023/02/20 00:44:16;;;;;;;4.45;1.80;;;;;;;16.22;52.67;100932.00;5115363;28;20063;-71
2023/02/20 00:46:44;;;;;;;5.28;1.80;;;;;;;16.19;52.79;100939.41;5115333;28;20054;-71
2023/02/20 00:49:13;;;;;;;4.30;1.80;;;;;;;16.19;52.62;100937.59;5115321;28;20052;-71
2023/02/20 00:51:42;;;;;;;4.50;1.60;;;;;;;16.16;52.70;100932.44;5115247;28;20123;-71
2023/02/20 00:54:10;;;;;;;4.07;1.70;;;;;;;16.16;52.73;100947.72;5115485;28;20051;-71
2023/02/20 00:56:39;;;;;;;3.53;1.50;;;;;;;16.14;52.67;100944.28;5115251;28;20051;-71
2023/02/20 00:59:07;;;;;;;3.63;1.70;;;;;;;16.10;52.61;100943.63;5115015;28;20051;-71
2023/02/20 01:01:35;;;;;;;4.97;1.52;;;;;;;16.10;52.71;100953.53;5115055;28;20047;-71
2023/02/20 01:04:04;;;;;;;4.82;1.58;;;;;;;16.06;52.61;100943.97;5114955;28;20062;-71
2023/02/20 01:06:32;;;;;;;3.05;1.60;;;;;;;16.05;52.67;100940.44;5114676;27;20043;-71
2023/02/20 01:09:01;;;;;;;4.97;1.60;;;;;;;16.03;52.66;100943.22;5114921;27;20386;-71
2023/02/20 01:11:29;;;;;;;3.33;1.42;;;;;;;16.01;52.63;100939.75;5114801;28;20043;-71
2023/02/20 01:13:58;;;;;;;3.70;1.40;;;;;;;16.00;52.76;100937.19;5114951;28;20069;-71
2023/02/20 01:16:26;;;;;;;3.78;1.63;;;;;;;15.99;52.75;100930.94;5115027;28;20097;-71
2023/02/20 01:18:55;;;;;;;4.07;1.50;;;;;;;15.98;52.58;100941.84;5114601;28;20047;-71
2023/02/20 01:21:23;;;;;;;3.97;1.42;;;;;;;15.95;52.68;100948.31;5099111;28;20498;-71
2023/02/20 01:23:51;;;;;;;4.32;1.50;;;;;;;15.93;52.44;100944.00;5094425;28;20051;-70
2023/02/20 01:26:21;;;;;;;3.60;1.55;;;;;;;15.92;52.49;100945.84;5094272;28;20401;-70
2023/02/20 01:28:49;;;;;;;3.15;1.38;;;;;;;15.89;52.34;100951.41;5094376;28;20048;-70
2023/02/20 01:31:18;;;;;;;3.08;1.60;;;;;;;15.87;52.43;100947.97;5094128;28;20056;-70
2023/02/20 01:33:46;;;;;;;3.38;1.60;;;;;;;15.86;52.46;100954.34;5094074;28;20131;-71
2023/02/20 01:36:14;;;;;;;3.60;1.50;;;;;;;15.84;52.49;100969.72;5094012;28;20055;-70
2023/02/20 01:38:42;;;;;;;3.38;1.27;;;;;;;15.82;52.41;100960.03;5093965;28;20043;-69
2023/02/20 01:41:11;;;;;;;3.35;1.40;;;;;;;15.80;52.21;100960.13;5094510;28;20668;-71
2023/02/20 01:43:41;;;;;;;4.22;1.55;;;;;;;15.79;52.18;100961.09;5094132;28;20044;-72
2023/02/20 01:46:43;;;;;;;2.78;1.20;;;;;;;15.76;51.95;100972.09;5107465;28;20054;-71
2023/02/20 01:49:14;;;;;;;4.00;1.52;;;;;;;15.74;51.88;100965.97;5114184;28;20039;-71
2023/02/20 01:51:45;;;;;;;2.88;1.25;;;;;;;15.72;51.88;100978.63;5114095;28;20055;-71
2023/02/20 01:54:16;;;;;;;4.13;1.40;;;;;;;15.69;51.54;100981.56;5114187;28;20135;-71
2023/02/20 01:56:47;;;;;;;3.42;1.40;;;;;;;15.66;51.55;100971.88;5114097;28;20118;-71
2023/02/20 01:59:18;;;;;;;3.60;1.30;;;;;;;15.66;51.32;100987.16;5113919;28;20076;-70
2023/02/20 02:01:46;;;;;;;3.97;1.20;;;;;;;15.62;51.25;100983.81;5112806;28;20067;-70
2023/02/20 02:04:15;;;;;;;3.55;1.33;;;;;;;15.62;51.11;100982.94;5113787;28;20047;-70
2023/02/20 02:06:48;;;;;;;3.03;1.33;;;;;;;15.60;50.99;100976.78;5113856;27;20035;-70
2023/02/20 02:09:23;;;;;;;2.88;1.40;;;;;;;15.58;50.82;100978.72;5113660;28;20105;-70
2023/02/20 02:11:51;;;;;;;3.03;1.20;;;;;;;15.55;50.87;100978.94;5113588;28;20047;-71
2023/02/20 02:14:21;;;;;;;3.70;1.30;;;;;;;15.51;50.95;100975.59;5113468;28;20081;-70
2023/02/20 02:17:02;;;;;;;3.28;1.42;;;;;;;15.50;50.80;100984.63;5113652;28;20108;-71
2023/02/20 02:19:57;;;;;;;3.88;1.55;;;;;;;15.49;50.62;100982.06;5113505;28;20078;-70
2023/02/20 02:23:03;;;;;;;4.75;1.40;;;;;;;15.45;50.54;100984.09;5111434;28;20066;-72
2023/02/20 02:25:40;;;;;;;3.40;1.38;;;;;;;15.45;50.50;100989.47;5113358;28;20093;-71
2023/02/20 02:28:38;;;;;;;3.05;1.20;;;;;;;15.40;50.31;100988.91;5113401;28;20046;-72
2023/02/20 02:31:46;;;;;;;2.92;1.25;;;;;;;15.38;50.37;100996.22;5113281;28;20108;-71
2023/02/20 02:34:56;;;;;;;3.08;1.40;;;;;;;15.36;50.27;100995.47;5112636;28;20132;-71
2023/02/20 02:37:31;;;;;;;3.15;1.23;;;;;;;15.32;50.16;101000.19;5092543;28;20052;-71
2023/02/20 02:40:08;;;;;;;2.97;1.45;;;;;;;15.32;50.36;101010.94;5092980;28;20047;-70
2023/02/20 02:42:46;;;;;;;2.83;1.17;;;;;;;15.31;50.35;101017.28;5092675;28;20051;-71
2023/02/20 02:45:22;;;;;;;2.80;1.42;;;;;;;15.27;50.42;101021.16;5092748;28;20044;-71
2023/02/20 02:47:56;;;;;;;3.13;1.33;;;;;;;15.25;50.28;101020.41;5092585;28;20044;-72
2023/02/20 02:50:29;;;;;;;2.38;1.10;;;;;;;15.23;50.15;101011.56;5092555;28;20040;-70
2023/02/20 02:52:59;;;;;;;2.63;1.15;;;;;;;15.24;50.36;101025.84;5092615;28;20051;-71
2023/02/20 02:55:29;;;;;;;2.70;1.40;;;;;;;15.21;50.39;101031.44;5092629;28;20094;-70
2023/02/20 02:57:58;;;;;;;2.30;1.17;;;;;;;15.19;50.12;101028.88;5092006;28;20101;-72
2023/02/20 03:00:29;;;;;;;3.15;1.30;;;;;;;15.17;49.97;101028.13;5092438;28;20131;-71
2023/02/20 03:03:05;;;;;;;2.92;1.55;;;;;;;15.16;50.07;101034.47;5092407;28;20051;-71
2023/02/20 03:05:45;;;;;;;2.50;1.30;;;;;;;15.14;49.96;101036.34;5092331;28;20105;-71
2023/02/20 03:08:30;;;;;;;2.35;1.20;;;;;;;15.11;50.04;101034.75;5092359;28;20044;-71
2023/02/20 03:11:05;;;;;;;2.63;1.20;;;;;;;15.08;49.98;101028.72;5092201;28;20048;-71
2023/02/20 03:16:30;;;;;;;3.10;1.30;;;;;;;15.06;50.06;101031.53;5092172;28;20489;-71
2023/02/20 03:19:02;;;;;;;2.42;1.20;;;;;;;15.06;50.03;101027.97;5092188;28;20044;-71
2023/02/20 03:21:33;;;;;;;2.80;1.50;;;;;;;15.03;49.97;101031.72;5092035;28;20044;-71
2023/02/20 03:24:05;;;;;;;2.38;1.35;;;;;;;15.02;49.70;101024.59;5092184;28;20169;-71
2023/02/20 03:26:36;;;;;;;2.72;1.40;;;;;;;15.00;49.75;101023.84;5092219;28;20124;-70
2023/02/20 03:29:12;;;;;;;1.90;1.25;;;;;;;14.98;49.79;101027.63;5092125;28;20151;-71
2023/02/20 03:31:45;;;;;;;2.80;1.30;;;;;;;14.96;49.65;101024.16;5092009;28;20128;-71
2023/02/20 03:45:42;;;;;;;2.92;1.40;;;;;;;14.87;49.85;101037.25;5112263;28;20071;-70
2023/02/20 03:48:16;;;;;;;2.45;1.30;;;;;;;14.86;49.73;101040.00;5096510;28;20097;-70
2023/02/20 03:53:30;;;;;;;2.70;1.35;;;;;;;14.80;49.80;101046.66;5091785;28;20404;-70
2023/02/20 03:56:04;;;;;;;3.20;1.63;;;;;;;14.80;49.66;101057.41;5093093;28;20044;-70
2023/02/20 03:58:37;;;;;;;3.65;1.50;;;;;;;14.78;49.49;101059.34;5099737;28;20499;-71
2023/02/20 04:01:08;;;;;;;2.67;1.25;;;;;;;14.79;49.47;101054.81;5096783;28;20044;-71
2023/02/20 04:03:41;;;;;;;2.47;1.17;;;;;;;14.77;49.57;101056.75;5097210;28;20043;-71
2023/02/20 04:06:11;;;;;;;3.03;1.50;;;;;;;14.74;49.60;101052.41;5092348;28;20040;-71
2023/02/20 04:08:46;;;;;;;2.50;1.35;;;;;;;14.72;49.33;101050.81;5091761;28;20078;-70
2023/02/20 04:11:21;;;;;;;2.28;1.17;;;;;;;14.71;49.62;101041.88;5096143;28;20048;-71
2023/02/20 04:13:52;;;;;;;2.65;1.30;;;;;;;14.70;49.41;101033.94;5095766;28;20050;-71
2023/02/20 04:16:21;;;;;;;2.92;1.35;;;;;;;14.69;49.51;101041.13;5095711;28;20400;-71
2023/02/20 04:18:49;;;;;;;3.28;1.30;;;;;;;14.68;49.58;101036.72;5095602;28;20067;-72
2023/02/20 04:21:21;;;;;;;3.28;1.42;;;;;;;14.67;49.36;101032.31;5095725;28;20055;-70
2023/02/20 04:23:59;;;;;;;2.85;1.50;;;;;;;14.63;49.47;101037.97;5095530;28;20044;-70
2023/02/20 04:26:29;;;;;;;2.58;1.50;;;;;;;14.61;49.27;101030.03;5095355;28;20058;-71
2023/02/20 04:28:58;;;;;;;2.92;1.42;;;;;;;14.62;49.21;101042.47;5095279;28;20048;-70
2023/02/20 04:31:27;;;;;;;2.10;1.20;;;;;;;14.61;49.27;101046.13;5095336;28;20559;-70
2023/02/20 04:33:55;;;;;;;2.75;1.50;;;;;;;14.57;49.10;101049.94;5095127;28;20051;-70
2023/02/20 04:36:24;;;;;;;2.25;1.20;;;;;;;14.58;49.04;101057.06;5095114;28;20059;-71
2023/02/20 04:38:53;;;;;;;3.22;1.45;;;;;;;14.59;49.00;101056.09;5095071;28;20733;-70
2023/02/20 04:41:21;;;;;;;4.13;1.38;;;;;;;14.60;49.20;101055.16;5095198;28;20102;-71
2023/02/20 04:44:29;;;;;;;2.03;1.20;;;;;;;14.65;49.43;101058.38;5094988;28;20469;-71
2023/02/20 04:46:39;;;;;;;2.67;1.38;;;;;;;14.72;49.38;101054.34;5094806;28;20501;-70
2023/02/20 04:49:07;;;;;;;2.28;1.23;;;;;;;14.80;49.42;101040.44;5094923;28;20435;-70
2023/02/20 04:51:35;;;;;;;2.30;1.35;;;;;;;14.91;49.48;101034.34;5108744;28;20046;-71
2023/02/20 04:54:03;;;;;;;2.42;1.45;;;;;;;14.97;49.25;101028.59;5115143;28;20492;-71
2023/02/20 04:56:31;;;;;;;2.78;1.30;;;;;;;15.08;49.08;101034.97;5099226;28;20084;-70
2023/02/20 04:59:01;;;;;;;2.50;1.30;;;;;;;15.18;49.05;101040.59;5094713;28;20478;-70
2023/02/20 05:01:29;;;;;;;2.95;1.33;;;;;;;15.27;49.02;101034.59;5094777;28;20044;-70
2023/02/20 05:03:57;;;;;;;2.92;1.38;;;;;;;15.38;48.91;101036.56;5094696;28;20036;-69
2023/02/20 05:06:28;;;;;;;3.55;1.60;;;;;;;15.50;48.80;101032.16;5094892;28;20055;-70
2023/02/20 05:08:57;;;;;;;3.33;1.42;;;;;;;15.64;48.55;101037.50;5094751;28;20508;-71
2023/02/20 05:11:26;;;;;;;2.72;1.30;;;;;;;15.74;48.46;101038.59;5094513;28;20047;-71
2023/02/20 05:13:54;;;;;;;1.98;1.23;;;;;;;15.83;48.25;101042.47;5094352;28;20048;-71
2023/02/20 05:16:23;;;;;;;2.50;1.27;;;;;;;15.95;48.10;101038.91;5094261;28;20044;-70
2023/02/20 05:18:54;;;;;;;4.27;1.50;;;;;;;16.05;48.03;101039.13;5094388;28;20101;-70
2023/02/20 05:24:08;;;;;;;2.67;1.45;;;;;;;16.17;47.56;101035.56;5094259;28;20093;-71
2023/02/20 05:26:36;;;;;;;2.72;1.27;;;;;;;16.24;47.69;101043.09;5094113;28;20043;-71
2023/02/20 05:29:05;;;;;;;2.80;1.30;;;;;;;16.27;47.53;101059.03;5094313;28;20043;-71
2023/02/20 05:31:35;;;;;;;2.15;1.30;;;;;;;16.28;47.45;101054.50;5094042;28;20043;-71
2023/02/20 05:34:03;;;;;;;2.53;1.38;;;;;;;16.27;47.49;101052.78;5093916;28;20165;-71
2023/02/20 05:36:32;;;;;;;2.55;1.10;;;;;;;16.25;47.32;101058.28;5093899;28;20443;-71
2023/02/20 05:39:01;;;;;;;2.80;1.50;;;;;;;16.21;47.41;101055.91;5093838;28;20408;-70
2023/02/20 05:41:29;;;;;;;2.35;1.27;;;;;;;16.20;47.38;101060.41;5093800;28;20044;-71
2023/02/20 05:43:58;;;;;;;4.25;1.50;;;;;;;16.19;47.31;101063.22;5094041;28;20052;-72
2023/02/20 05:46:27;;;;;;;4.13;1.52;;;;;;;16.10;47.20;101053.09;5093885;28;20098;-72
2023/02/20 05:48:57;;;;;;;3.33;1.58;;;;;;;16.10;47.26;101064.72;5093563;28;20404;-71
2023/02/20 05:51:28;;;;;;;2.13;1.10;;;;;;;16.07;47.30;101074.88;5093706;28;20396;-71
2023/02/20 05:53:57;;;;;;;1.92;1.10;;;;;;;16.03;47.18;101069.72;5093406;28;20052;-72
2023/02/20 05:56:25;;;;;;;2.60;1.33;;;;;;;16.01;47.18;101077.00;5093826;28;20044;-70
2023/02/20 05:58:53;;;;;;;3.58;1.40;;;;;;;15.97;47.17;101077.34;5093681;28;20065;-71
2023/02/20 06:01:24;;;;;;;2.40;1.35;;;;;;;15.95;47.05;101084.66;5093445;28;20064;-71
2023/02/20 06:03:53;;;;;;;2.60;1.20;;;;;;;15.92;46.65;101088.44;5093350;28;20052;-71
2023/02/20 06:06:22;;;;;;;1.80;1.27;;;;;;;15.90;46.60;101084.97;5093290;28;20127;-71
2023/02/20 06:08:51;;;;;;;2.80;1.20;;;;;;;15.85;46.78;101087.13;5094455;28;20040;-71
2023/02/20 06:11:19;;;;;;;2.92;1.50;;;;;;;15.83;46.78;101089.06;5094466;28;20048;-71
2023/02/20 06:13:47;;;;;;;3.58;1.58;;;;;;;15.73;46.86;101085.28;5093381;28;20097;-72
2023/02/20 06:16:22;;;;;;;1.85;1.30;;;;;;;15.68;47.14;101092.78;5093204;28;20048;-71
2023/02/20 06:18:51;;;;;;;3.20;1.40;;;;;;;15.67;46.97;101102.69;5093060;28;20048;-72
2023/02/20 06:21:22;;;;;;;2.95;1.33;;;;;;;15.62;46.69;101098.56;5092761;28;20089;-72
2023/02/20 06:23:52;;;;;;;3.70;1.52;;;;;;;15.60;46.58;101095.09;5092888;28;20393;-71
2023/02/20 06:26:21;;;;;;;3.30;1.65;;;;;;;15.55;46.50;101086.50;5092753;28;20051;-70
2023/02/20 06:28:49;;;;;;;2.63;1.23;;;;;;;15.53;46.68;101089.25;5092738;28;20051;-70
2023/02/20 06:31:22;;;;;;;3.08;1.40;;;;;;;15.52;46.59;101098.31;5092538;28;20546;-71
2023/02/20 06:33:51;;;;;;;3.15;1.55;;;;;;;15.50;46.61;101094.00;5091928;28;20063;-71
2023/02/20 06:36:22;;;;;;;3.15;1.50;;;;;;;15.48;46.41;101104.00;5092448;28;20474;-71
2023/02/20 06:38:53;;;;;;;3.63;1.58;;;;;;;15.44;46.44;101109.59;5093051;28;20461;-70
2023/02/20 06:41:24;;;;;;;2.97;1.40;;;;;;;15.40;46.47;101099.13;5092797;28;20048;-72
2023/02/20 06:43:54;;;;;;;3.95;1.60;;;;;;;15.39;46.40;101106.34;5092587;28;20048;-73
2023/02/20 06:46:22;;;;;;;2.55;1.40;;;;;;;15.37;46.52;101102.03;5092562;28;20044;-77
2023/02/20 06:48:53;;;;;;;2.85;1.25;;;;;;;15.35;46.67;101107.53;5092837;28;20089;-76
2023/02/20 06:51:23;;;;;;;2.60;1.38;;;;;;;15.32;46.69;101107.69;5092788;28;20051;-70
2023/02/20 06:53:54;;;;;;;3.13;1.55;;;;;;;15.29;46.23;101102.53;5094811;28;20051;-74
2023/02/20 06:56:25;;;;;;;3.08;1.27;;;;;;;15.27;46.32;101096.41;5092696;28;20048;-75
2023/02/20 06:58:54;;;;;;;2.83;1.50;;;;;;;15.26;46.34;101108.13;5092743;28;20386;-76
2023/02/20 07:01:25;;;;;;;2.85;1.40;;;;;;;15.24;46.38;101110.03;5092630;28;20048;-75
2023/02/20 07:03:58;;;;;;;3.45;1.50;;;;;;;15.21;46.46;101110.25;5092790;28;20048;-72
2023/02/20 07:06:30;;;;;;;3.53;1.33;;;;;;;15.18;46.58;101113.16;5092656;28;20499;-75
2023/02/20 07:08:59;;;;;;;1.98;1.10;;;;;;;15.16;46.85;101107.00;5090985;28;20075;-75
2023/02/20 07:11:27;;;;;;;2.17;1.23;;;;;;;15.14;46.56;101100.84;5091453;28;20442;-75
2023/02/20 07:13:57;;;;;;;2.40;1.20;;;;;;;15.13;46.45;101091.06;5091682;28;20050;-73
2023/02/20 07:16:25;;;;;;;2.45;1.27;;;;;;;15.11;46.52;101098.38;5092330;28;20519;-73
2023/02/20 07:18:53;;;;;;;2.53;1.38;;;;;;;15.09;46.61;101105.69;5092203;28;20048;-74
2023/02/20 07:21:22;;;;;;;2.22;1.20;;;;;;;15.07;46.63;101102.25;5091947;28;20044;-73
2023/02/20 07:23:50;;;;;;;3.40;1.55;;;;;;;15.03;46.60;101101.56;5092423;28;20052;-75
2023/02/20 07:26:23;;;;;;;2.85;1.38;;;;;;;15.04;46.66;101097.03;5092325;28;20051;-75
2023/02/20 07:28:51;;;;;;;2.80;1.08;;;;;;;15.01;46.83;101097.25;5092316;28;20078;-73
2023/02/20 07:31:21;;;;;;;1.98;1.25;;;;;;;15.00;46.86;101096.41;5092251;28;20079;-74
2023/02/20 07:33:50;;;;;;;2.22;1.20;;;;;;;14.96;46.71;101094.00;5092100;28;20466;-74
2023/02/20 07:36:19;;;;;;;2.97;1.30;;;;;;;14.97;46.52;101101.97;5091808;28;20047;-74
2023/02/20 07:38:54;;;;;;;2.55;1.10;;;;;;;14.96;46.61;101116.38;5092544;28;20047;-73
2023/02/20 07:41:28;;;;;;;2.70;1.17;;;;;;;14.94;46.53;101112.91;5092205;28;20051;-74
2023/02/20 07:43:56;;;;;;;3.63;1.40;;;;;;;14.93;46.44;101115.69;5095412;28;20161;-73
2023/02/20 07:46:32;;;;;;;4.32;1.45;;;;;;;14.91;46.57;101112.25;5098789;28;20036;-74
2023/02/20 07:49:01;;;;;;;2.42;1.27;;;;;;;14.89;46.58;101109.66;5099000;28;20048;-73
2023/02/20 07:51:30;;;;;;;2.92;1.30;;;;;;;14.88;46.65;101114.19;5098735;28;20044;-74
2023/02/20 07:53:59;;;;;;;3.78;1.20;;;;;;;14.86;46.78;101105.38;5098722;28;20497;-74
2023/02/20 07:56:29;;;;;;;2.33;1.13;;;;;;;14.84;46.78;101099.19;5098550;28;20477;-74
2023/02/20 07:58:59;;;;;;;2.13;1.10;;;;;;;14.85;46.79;101105.44;5098561;28;20048;-74
2023/02/20 08:01:28;;;;;;;1.85;1.10;;;;;;;14.82;46.79;101109.19;5098500;28;20048;-73
2023/02/20 08:03:57;;;;;;;1.70;1.10;;;;;;;14.82;46.89;101108.31;5097486;28;20044;-74
2023/02/20 08:06:25;;;;;;;2.65;1.33;;;;;;;14.82;47.01;101111.88;5098353;28;20073;-74
2023/02/20 08:08:53;;;;;;;3.00;1.40;;;;;;;14.81;47.00;101101.22;5098455;28;20481;-74
2023/02/20 08:11:22;;;;;;;1.90;1.13;;;;;;;14.78;46.92;101093.38;5098691;28;20036;-73
2023/02/20 08:13:54;;;;;;;2.88;1.30;;;;;;;14.83;47.06;101096.63;5098430;28;20040;-75
2023/02/20 08:16:22;;;;;;;3.22;1.42;;;;;;;14.82;47.10;101094.91;5098393;28;20140;-72
2023/02/20 08:18:51;;;;;;;3.00;1.30;;;;;;;14.82;47.10;101098.44;5098788;28;20043;-72
2023/02/20 08:21:20;;;;;;;1.77;1.13;;;;;;;14.81;47.22;101098.53;5098734;28;20440;-73
2023/02/20 08:23:51;;;;;;;2.92;1.40;;;;;;;14.81;47.04;101094.03;5099092;28;20054;-73
2023/02/20 08:26:19;;;;;;;2.50;1.30;;;;;;;14.82;47.17;101100.28;5098667;28;20447;-73
2023/02/20 08:28:49;;;;;;;3.42;1.40;;;;;;;14.80;47.06;101095.00;5098467;28;20334;-73
2023/02/20 08:31:20;;;;;;;2.38;1.15;;;;;;;14.79;47.14;101093.28;5098239;28;20512;-73
2023/02/20 08:33:59;;;;;;;3.03;1.27;;;;;;;14.76;47.26;101096.13;5098424;28;20048;-73
2023/02/20 08:36:28;;;;;;;2.45;1.30;;;;;;;14.80;47.25;101086.09;5097866;28;20120;-74
2023/02/20 08:38:56;;;;;;;3.53;1.48;;;;;;;14.79;47.31;101082.53;5097946;28;20082;-75
2023/02/20 08:41:24;;;;;;;2.80;1.48;;;;;;;14.81;47.33;101085.97;5098174;28;20040;-75
2023/02/20 08:43:53;;;;;;;2.28;1.13;;;;;;;14.81;47.46;101079.75;5098250;28;20120;-75
2023/02/20 08:46:22;;;;;;;2.78;1.33;;;;;;;14.80;47.33;101078.03;5098324;28;20465;-74
2023/02/20 08:48:51;;;;;;;2.38;1.35;;;;;;;14.82;47.41;101076.09;5098278;28;20469;-74
2023/02/20 08:51:21;;;;;;;2.58;1.23;;;;;;;14.81;47.47;101080.59;5098215;28;20048;-75
2023/02/20 08:53:50;;;;;;;2.25;1.30;;;;;;;14.81;47.50;101075.25;5096876;28;20051;-75
2023/02/20 08:56:19;;;;;;;3.20;1.50;;;;;;;14.83;47.57;101072.44;5094511;28;20044;-73
2023/02/20 08:58:47;;;;;;;1.50;1.13;;;;;;;14.83;47.59;101078.69;5095110;28;20048;-74
2023/02/20 09:01:15;;;;;;;2.20;1.10;;;;;;;14.83;47.52;101077.81;5094644;28;20093;-72
2023/02/20 09:03:45;;;;;;;2.72;1.33;;;;;;;14.85;47.50;101071.38;5094754;28;20104;-74
2023/02/20 09:06:13;;;;;;;2.72;1.27;;;;;;;14.84;47.50;101072.34;5094446;28;20040;-73
2023/02/20 09:08:42;;;;;;;3.08;1.40;;;;;;;14.83;47.63;101057.19;5094574;28;20051;-73
2023/02/20 09:11:11;;;;;;;2.33;1.10;;;;;;;14.85;47.59;101071.38;5094751;28;20048;-74
2023/02/20 09:13:43;;;;;;;1.85;1.10;;;;;;;14.83;47.69;101062.56;5094547;28;20123;-74
2023/02/20 09:16:12;;;;;;;2.42;1.40;;;;;;;14.86;47.70;101061.50;5094794;28;20044;-72
2023/02/20 09:18:40;;;;;;;2.00;1.02;;;;;;;14.87;47.76;101060.56;5094635;28;20469;-72
2023/02/20 09:21:11;;;;;;;2.40;1.30;;;;;;;14.87;47.76;101041.75;5094568;28;20058;-72
2023/02/20 09:23:39;;;;;;;2.13;1.20;;;;;;;14.88;47.59;101044.34;5094763;28;20499;-74
2023/02/20 09:26:07;;;;;;;2.58;1.40;;;;;;;14.88;47.60;101033.59;5093103;28;20130;-72
2023/02/20 09:28:36;;;;;;;3.20;1.30;;;;;;;14.89;47.67;101046.06;5094538;28;20074;-73
2023/02/20 09:31:05;;;;;;;2.58;1.27;;;;;;;14.89;47.73;101034.47;5094426;28;20071;-73
2023/02/20 09:33:34;;;;;;;2.03;0.98;;;;;;;14.87;47.56;101031.88;5094042;28;20558;-73
2023/02/20 09:36:02;;;;;;;1.90;1.10;;;;;;;14.89;47.46;101029.09;5094406;28;20394;-74
2023/02/20 09:38:31;;;;;;;2.30;1.30;;;;;;;14.89;47.60;101038.00;5092813;28;20128;-74
2023/02/20 09:41:00;;;;;;;3.72;1.52;;;;;;;14.87;47.64;101031.88;5094353;28;20048;-73
2023/02/20 09:43:40;;;;;;;2.25;1.23;;;;;;;14.89;47.70;101040.69;5094153;28;20044;-74
2023/02/20 09:46:15;;;;;;;2.28;1.20;;;;;;;14.89;47.71;101029.94;5094084;28;20043;-74
2023/02/20 09:48:58;;;;;;;2.72;1.30;;;;;;;14.90;47.69;101020.06;5093837;28;20066;-72
2023/02/20 09:51:30;;;;;;;2.05;1.08;;;;;;;14.90;47.64;101033.50;5093877;28;20058;-73
2023/02/20 09:54:05;;;;;;;3.22;1.23;;;;;;;14.91;47.83;101020.91;5093810;28;20474;-74
2023/02/20 09:56:38;;;;;;;3.22;1.27;;;;;;;14.89;47.79;101029.94;5093553;28;20047;-72
2023/02/20 09:59:13;;;;;;;2.13;1.30;;;;;;;14.88;47.82;101017.47;5093543;28;20105;-73
2023/02/20 10:01:46;;;;;;;3.38;1.38;;;;;;;14.90;47.46;101003.94;5093458;28;20051;-74
2023/02/20 10:04:17;;;;;;;4.60;1.58;;;;;;;14.89;47.44;101003.09;5093514;28;20524;-74
2023/02/20 10:06:50;;;;;;;2.10;1.10;;;;;;;14.89;47.48;100992.34;5092489;28;20056;-72
2023/02/20 10:09:20;;;;;;;2.33;1.27;;;;;;;14.93;47.42;100994.81;5093335;28;20047;-74
2023/02/20 10:12:03;;;;;;;2.72;1.20;;;;;;;14.93;47.21;100987.63;5093866;28;20047;-73
2023/02/20 10:14:46;;;;;;;2.13;1.00;;;;;;;14.93;47.32;100984.94;5093652;28;20528;-73
2023/02/20 10:17:29;;;;;;;3.03;1.40;;;;;;;14.88;47.37;100979.88;5093110;28;20055;-74
2023/02/20 10:20:03;;;;;;;2.63;1.10;;;;;;;14.95;47.35;100982.13;5093248;28;20477;-73
2023/02/20 10:22:33;;;;;;;2.92;1.42;;;;;;;14.95;47.24;100990.19;5093220;28;20066;-72
2023/02/20 10:25:15;;;;;;;2.95;1.20;;;;;;;14.92;47.26;100983.22;5093276;28;20131;-73
2023/02/20 10:27:52;;;;;;;2.67;1.45;;;;;;;14.94;47.36;100978.59;5093106;28;20810;-74
2023/02/20 10:30:27;;;;;;;2.05;1.30;;;;;;;14.94;47.34;100978.59;5093048;28;20374;-75
2023/02/20 10:33:01;;;;;;;3.13;1.35;;;;;;;14.96;47.45;100976.69;5093477;28;20044;-73
2023/02/20 10:35:37;;;;;;;2.20;1.30;;;;;;;15.00;47.55;100962.06;5092887;28;20052;-72
2023/02/20 10:38:10;;;;;;;2.10;1.15;;;;;;;15.01;47.73;100954.88;5092628;28;20056;-73
2023/02/20 10:40:46;;;;;;;3.40;1.50;;;;;;;15.06;47.12;100956.28;5093056;28;20075;-74
2023/02/20 10:43:20;;;;;;;3.75;1.48;;;;;;;15.07;47.48;100951.78;5093195;28;20391;-74
2023/02/20 10:45:58;;;;;;;1.90;1.13;;;;;;;15.12;47.58;100934.34;5092755;28;20565;-73
2023/02/20 10:48:32;;;;;;;3.70;1.58;;;;;;;15.12;47.70;100931.69;5093053;28;20449;-73
2023/02/20 10:51:06;;;;;;;3.35;1.40;;;;;;;15.17;47.74;100917.94;5092962;28;20048;-73
2023/02/20 10:53:43;;;;;;;3.20;1.40;;;;;;;15.15;47.80;100920.75;5092979;28;20044;-73
2023/02/20 10:56:20;;;;;;;3.08;1.25;;;;;;;15.17;47.66;100912.56;5092918;28;20044;-72
2023/02/20 10:58:57;;;;;;;3.30;1.50;;;;;;;15.18;47.72;100906.22;5093054;28;20044;-73
2023/02/20 11:01:28;;;;;;;2.97;1.48;;;;;;;15.21;47.79;100916.75;5092889;28;20044;-71
2023/02/20 11:04:02;;;;;;;2.40;1.40;;;;;;;15.27;47.70;100904.72;5092844;28;20511;-72
2023/02/20 11:06:36;;;;;;;3.38;1.83;;;;;;;15.28;47.69;100901.94;5092734;28;20062;-72
2023/02/20 11:09:07;;;;;;;3.03;1.27;;;;;;;15.30;47.89;100902.69;5092904;28;20048;-74
2023/02/20 11:11:40;;;;;;;2.13;1.20;;;;;;;15.33;47.94;100883.63;5092815;28;20040;-72
2023/02/20 11:14:12;;;;;;;2.92;1.45;;;;;;;15.34;47.77;100884.50;5092710;28;20485;-73
2023/02/20 11:16:46;;;;;;;3.35;1.58;;;;;;;15.34;47.84;100879.97;5092772;28;20061;-72
2023/02/20 11:19:21;;;;;;;3.28;1.42;;;;;;;15.39;47.68;100883.22;5091067;28;20056;-72
2023/02/20 11:21:53;;;;;;;3.88;1.60;;;;;;;15.38;47.68;100873.44;5092840;28;20497;-73
2023/02/20 11:24:28;;;;;;;2.65;1.45;;;;;;;15.41;47.85;100853.53;5092458;28;20485;-72
2023/02/20 11:27:06;;;;;;;2.60;1.33;;;;;;;15.43;47.81;100852.44;5092843;28;20194;-72
2023/02/20 11:29:40;;;;;;;3.90;1.70;;;;;;;15.49;47.87;100861.06;5092897;28;20067;-72
2023/02/20 11:32:31;;;;;;;2.80;1.65;;;;;;;15.49;47.87;100861.06;5094613;28;20443;-73
2023/02/20 11:35:20;;;;;;;2.38;1.50;;;;;;;15.50;47.65;100863.63;5091052;28;20059;-73
2023/02/20 11:37:51;;;;;;;2.78;1.40;;;;;;;15.50;47.62;100860.94;5093751;28;20059;-72
2023/02/20 11:40:28;;;;;;;3.35;1.60;;;;;;;15.50;47.43;100852.03;5093343;28;20554;-74
2023/02/20 11:43:10;;;;;;;3.85;1.70;;;;;;;15.54;47.54;100845.44;5092560;28;20489;-73
2023/02/20 11:45:39;;;;;;;2.53;1.42;;;;;;;15.54;47.66;100842.75;5092512;28;20397;-73
2023/02/20 11:48:11;;;;;;;3.72;1.80;;;;;;;15.58;47.58;100829.00;5092012;28;20040;-72
2023/02/20 11:50:43;;;;;;;3.25;1.73;;;;;;;15.62;47.85;100813.53;5092688;28;20048;-72
2023/02/20 11:53:21;;;;;;;2.20;1.50;;;;;;;15.70;47.93;100811.16;5091829;28;20394;-72
2023/02/20 11:55:50;;;;;;;3.17;1.50;;;;;;;15.74;48.03;100801.91;5091823;28;20044;-72
2023/02/20 11:58:29;;;;;;;2.72;1.50;;;;;;;15.78;48.13;100803.38;5092086;28;20052;-72
2023/02/20 12:00:58;;;;;;;2.53;1.35;;;;;;;15.79;48.19;100802.41;5092120;28;20045;-72
2023/02/20 12:03:28;;;;;;;2.38;1.35;;;;;;;15.79;48.31;100788.09;5091905;28;20127;-73
2023/02/20 12:05:59;;;;;;;2.95;1.48;;;;;;;15.82;48.37;100788.72;5091834;28;20097;-72